Laupqren — LMQP — position and weather

sailwx.info

Track history (hours):
 
Tides and Currents Weather Stations Pressure Air Temp Water Temp Dewpoint Dewpoint Depression Visibility Wind Speed Wind Dir Waves Ship Positions

Laupqren

Last reported at 2017-Nov-23 15:07 UTC. Time now 2017-Nov-23 17:07 UTC.
Position N 16°48' W 062°12'.

Length 32 m.

Type: Passenger vessel. MMSI: 257285700.

Date/timePositionNaut miles runAvg speedWind from/ knotsBaromVisibWave heightAir tempDewpointWater temp
2017-Nov-23 15:07N 16°48' W 062°12'0 0.6
2017-Nov-23 14:53N 16°48' W 062°12'719.5
2017-Nov-23 14:31N 16°54' W 062°08'1323.3
2017-Nov-23 13:57N 17°03' W 061°59'818.9
2017-Nov-23 13:31N 17°07' W 061°51'0 0.3
2017-Nov-23 13:00N 17°07' W 061°51'0 0.0
2017-Nov-23 12:30N 17°07' W 061°51'0 0.0
2017-Nov-23 12:00N 17°07' W 061°51'4 8.6
2017-Nov-23 11:30N 17°07' W 061°55'1224.4
2017-Nov-23 11:00N 16°58' W 062°04'1223.3
2017-Nov-23 10:30N 16°50' W 062°13'  
2017-Nov-20 00:22N 16°48' W 062°12'616.4
2017-Nov-20 00:00N 16°53' W 062°10'1121.0
2017-Nov-19 23:29N 17°01' W 062°01'1122.3
2017-Nov-19 23:00N 17°08' W 061°53'2 4.2
2017-Nov-19 22:28N 17°07' W 061°51'0 0.0
2017-Nov-19 21:58N 17°07' W 061°51'0 0.0
2017-Nov-19 21:28N 17°07' W 061°51'0 0.0
2017-Nov-19 20:58N 17°07' W 061°51'0 0.0
2017-Nov-19 20:28N 17°07' W 061°51'0 0.0
2017-Nov-19 19:58N 17°07' W 061°51'0 0.0
2017-Nov-19 19:28N 17°07' W 061°51'0 0.0
2017-Nov-19 18:58N 17°07' W 061°51'0 0.0
2017-Nov-19 18:28N 17°07' W 061°51'0 0.0
2017-Nov-19 17:58N 17°07' W 061°51'0 0.0
2017-Nov-19 17:28N 17°07' W 061°51'0 0.0
2017-Nov-19 16:58N 17°07' W 061°51'0 0.0
2017-Nov-19 16:28N 17°07' W 061°51'0 0.0
2017-Nov-19 15:58N 17°07' W 061°51'0 0.0
2017-Nov-19 15:28N 17°07' W 061°51'0 0.0
2017-Nov-19 14:58N 17°07' W 061°51'0 0.0
2017-Nov-19 14:28N 17°07' W 061°51'0 0.0
2017-Nov-19 13:58N 17°07' W 061°51'0 0.0
2017-Nov-19 13:28N 17°07' W 061°51'0 0.0
2017-Nov-19 12:58N 17°07' W 061°51'0 0.0
2017-Nov-19 12:28N 17°07' W 061°51'0 0.0
2017-Nov-19 11:58N 17°07' W 061°51'4 8.5
2017-Nov-19 11:31N 17°07' W 061°55'1122.1
2017-Nov-19 11:00N 16°59' W 062°03'1121.7
2017-Nov-19 10:31N 16°52' W 062°11'4 7.2
2017-Nov-19 09:59N 16°48' W 062°12'0 0.3
2017-Nov-19 09:30N 16°48' W 062°13'0 0.0
2017-Nov-19 08:57N 16°48' W 062°13'0 0.0
2017-Nov-19 08:30N 16°48' W 062°13'0 0.0
2017-Nov-19 08:00N 16°48' W 062°13'0 0.0
2017-Nov-19 07:27N 16°48' W 062°13'0 0.0
2017-Nov-19 06:57N 16°48' W 062°13'0 0.0
2017-Nov-19 06:30N 16°48' W 062°13'0 0.0
2017-Nov-19 05:59N 16°48' W 062°13'0 0.0
2017-Nov-19 05:29N 16°48' W 062°13'0 0.0
2017-Nov-19 04:59N 16°48' W 062°13'0 0.0
2017-Nov-19 04:29N 16°48' W 062°13'0 0.0
2017-Nov-19 03:59N 16°48' W 062°13'0 0.0
2017-Nov-19 03:29N 16°48' W 062°13'0 0.0
2017-Nov-19 02:59N 16°48' W 062°13'0 0.0
2017-Nov-19 02:29N 16°48' W 062°13'0 0.0
2017-Nov-19 01:59N 16°48' W 062°13'0 0.0
2017-Nov-19 01:29N 16°48' W 062°13'0 0.0
2017-Nov-19 00:56N 16°48' W 062°13'0 0.9
2017-Nov-19 00:29N 16°49' W 062°13'1021.0
2017-Nov-18 23:59N 16°57' W 062°06'1021.3
2017-Nov-18 23:30N 17°04' W 061°58'814.8
2017-Nov-18 22:58N 17°07' W 061°51'0 0.0
2017-Nov-18 22:28N 17°07' W 061°51'0 0.0
2017-Nov-18 21:58N 17°07' W 061°51'0 0.0
2017-Nov-18 21:28N 17°07' W 061°51'0 0.0
2017-Nov-18 20:58N 17°07' W 061°51'0 0.0
2017-Nov-18 20:28N 17°07' W 061°51'0 0.0
2017-Nov-18 19:58N 17°07' W 061°51'0 0.0
2017-Nov-18 19:28N 17°07' W 061°51'0 0.0
2017-Nov-18 18:58N 17°07' W 061°51'0 0.0
2017-Nov-18 18:28N 17°07' W 061°51'0 0.0
2017-Nov-18 17:58N 17°07' W 061°51'0 0.0
2017-Nov-18 17:28N 17°07' W 061°51'0 0.0
2017-Nov-18 16:58N 17°07' W 061°51'0 0.0
2017-Nov-18 16:25N 17°07' W 061°51'0 0.0
2017-Nov-18 15:58N 17°07' W 061°51'0 0.0
2017-Nov-18 15:28N 17°07' W 061°51'0 0.0
2017-Nov-18 14:58N 17°07' W 061°51'0 0.0
2017-Nov-18 14:28N 17°07' W 061°51'0 0.0
2017-Nov-18 13:58N 17°07' W 061°51'0 0.0
2017-Nov-18 13:28N 17°07' W 061°51'0 0.0
2017-Nov-18 12:58N 17°07' W 061°51'0 0.0
2017-Nov-18 12:28N 17°07' W 061°51'1 1.3
2017-Nov-18 12:01N 17°07' W 061°51'917.7
2017-Nov-18 11:30N 17°03' W 061°59'1122.9
2017-Nov-18 11:00N 16°55' W 062°08'812.4
2017-Nov-18 10:22N 16°48' W 062°12'0 0.0
2017-Nov-18 09:55N 16°48' W 062°12'0 0.4
2017-Nov-18 09:20N 16°48' W 062°13'0 0.0
2017-Nov-18 08:56N 16°48' W 062°13'0 0.0
2017-Nov-18 08:29N 16°48' W 062°13'0 0.0
2017-Nov-18 07:46N 16°48' W 062°13'0 0.0
2017-Nov-18 07:28N 16°48' W 062°13'0 0.0
2017-Nov-18 06:58N 16°48' W 062°13'0 0.0
2017-Nov-18 06:22N 16°48' W 062°13'0 0.0
2017-Nov-18 05:58N 16°48' W 062°13'0 0.0
2017-Nov-18 05:25N 16°48' W 062°13'0 0.0
2017-Nov-18 04:55N 16°48' W 062°13'0 0.0
2017-Nov-18 04:28N 16°48' W 062°13'0 0.0
2017-Nov-18 03:58N 16°48' W 062°13'0 0.1
2017-Nov-18 00:32N 16°48' W 062°12'0 4.7
2017-Nov-18 00:30N 16°48' W 062°13'1020.0
2017-Nov-17 23:59N 16°56' W 062°06'1122.1
2017-Nov-17 23:30N 17°04' W 061°58'815.6
2017-Nov-17 23:00N 17°07' W 061°51'0 0.0
2017-Nov-17 22:30N 17°07' W 061°51'0 0.0
2017-Nov-17 22:00N 17°07' W 061°51'0 0.0
2017-Nov-17 21:30N 17°07' W 061°51'0 0.0
2017-Nov-17 21:00N 17°07' W 061°51'0 0.0
2017-Nov-17 20:30N 17°07' W 061°51'0 0.0
2017-Nov-17 20:00N 17°07' W 061°51'0 0.0
2017-Nov-17 19:30N 17°07' W 061°51'0 0.0
2017-Nov-17 19:00N 17°07' W 061°51'0 0.0
2017-Nov-17 18:27N 17°07' W 061°51'0 0.0
2017-Nov-17 18:00N 17°07' W 061°51'0 0.0
2017-Nov-17 17:30N 17°07' W 061°51'0 0.0
2017-Nov-17 17:00N 17°07' W 061°51'0 0.0
2017-Nov-17 16:30N 17°07' W 061°51'0 0.0
2017-Nov-17 16:00N 17°07' W 061°51'0 0.0
2017-Nov-17 15:30N 17°07' W 061°51'0 0.0
2017-Nov-17 15:00N 17°07' W 061°51'0 0.0
2017-Nov-17 14:30N 17°07' W 061°51'0 0.0
2017-Nov-17 14:00N 17°07' W 061°51'0 0.0
2017-Nov-17 13:30N 17°07' W 061°51'0 0.0
2017-Nov-17 13:00N 17°07' W 061°51'0 0.0
2017-Nov-17 12:30N 17°07' W 061°51'0 0.0
2017-Nov-17 12:00N 17°07' W 061°51'510.6
2017-Nov-17 11:30N 17°06' W 061°56'1122.0
2017-Nov-17 11:00N 16°58' W 062°04'1121.9
2017-Nov-17 10:30N 16°50' W 062°12'2 0.2
2017-Nov-17 01:02N 16°48' W 062°12'0 4.3
2017-Nov-17 01:00N 16°48' W 062°12'1119.6
2017-Nov-17 00:28N 16°56' W 062°05'1022.5
2017-Nov-17 00:00N 17°04' W 061°58'814.7
2017-Nov-16 23:29N 17°07' W 061°51'0 0.0
2017-Nov-16 22:59N 17°07' W 061°51'0 0.0
2017-Nov-16 22:29N 17°07' W 061°51'2 4.9
2017-Nov-16 22:00N 17°08' W 061°53'1223.4
2017-Nov-16 21:30N 17°00' W 062°02'1223.7
2017-Nov-16 21:00N 16°52' W 062°11'4 0.9
2017-Nov-16 16:48N 16°48' W 062°12'0 0.0
2017-Nov-16 14:40N 16°48' W 062°12'215.5
2017-Nov-16 14:30N 16°51' W 062°12'1121.6
2017-Nov-16 13:59N 16°58' W 062°04'1122.2
2017-Nov-16 13:30N 17°06' W 061°56'5 9.2
2017-Nov-16 12:58N 17°07' W 061°51'0 0.0
2017-Nov-16 12:28N 17°07' W 061°51'0 0.1
2017-Nov-16 11:59N 17°07' W 061°51'511.5
2017-Nov-16 11:30N 17°06' W 061°56'1223.5
2017-Nov-16 11:00N 16°58' W 062°05'1223.0
2017-Nov-16 10:30N 16°49' W 062°13'1 0.1
2017-Nov-15 20:51N 16°48' W 062°12'0 0.0
2017-Nov-15 01:03N 16°48' W 062°12'1 9.3
2017-Nov-15 00:59N 16°49' W 062°13'1121.3
2017-Nov-15 00:29N 16°57' W 062°06'1022.1
2017-Nov-15 00:01N 17°04' W 061°58'713.3
2017-Nov-14 23:28N 17°07' W 061°51'0 0.0
2017-Nov-14 22:58N 17°07' W 061°51'0 0.0
2017-Nov-14 22:28N 17°07' W 061°51'3 7.3
2017-Nov-14 22:00N 17°08' W 061°54'1123.0
2017-Nov-14 21:30N 16°59' W 062°03'1121.7
2017-Nov-14 21:00N 16°52' W 062°10'4 0.6
2017-Nov-14 14:33N 16°48' W 062°12'0 6.3
2017-Nov-14 14:30N 16°48' W 062°13'1121.5
2017-Nov-14 13:59N 16°57' W 062°05'1123.0
2017-Nov-14 13:30N 17°05' W 061°57'713.5
2017-Nov-14 13:00N 17°07' W 061°51'  
Track history (hours):
 
Tides and Currents Weather Stations Pressure Air Temp Water Temp Dewpoint Dewpoint Depression Visibility Wind Speed Wind Dir Waves Ship Positions

Laupqren

Last reported at 2017-Nov-23 15:07 UTC. Time now 2017-Nov-23 17:07 UTC.
Position N 16°48' W 062°12'.

Length 32 m.

Type: Passenger vessel. MMSI: 257285700.

Date/timePositionNaut miles runAvg speedWind from/ knotsBaromVisibWave heightAir tempDewpointWater temp
2017-Nov-23 15:07N 16°48' W 062°12'0 0.6
2017-Nov-23 14:53N 16°48' W 062°12'719.5
2017-Nov-23 14:31N 16°54' W 062°08'1323.3
2017-Nov-23 13:57N 17°03' W 061°59'818.9
2017-Nov-23 13:31N 17°07' W 061°51'0 0.3
2017-Nov-23 13:00N 17°07' W 061°51'0 0.0
2017-Nov-23 12:30N 17°07' W 061°51'0 0.0
2017-Nov-23 12:00N 17°07' W 061°51'4 8.6
2017-Nov-23 11:30N 17°07' W 061°55'1224.4
2017-Nov-23 11:00N 16°58' W 062°04'1223.3
2017-Nov-23 10:30N 16°50' W 062°13'  
2017-Nov-20 00:22N 16°48' W 062°12'616.4
2017-Nov-20 00:00N 16°53' W 062°10'1121.0
2017-Nov-19 23:29N 17°01' W 062°01'1122.3
2017-Nov-19 23:00N 17°08' W 061°53'2 4.2
2017-Nov-19 22:28N 17°07' W 061°51'0 0.0
2017-Nov-19 21:58N 17°07' W 061°51'0 0.0
2017-Nov-19 21:28N 17°07' W 061°51'0 0.0
2017-Nov-19 20:58N 17°07' W 061°51'0 0.0
2017-Nov-19 20:28N 17°07' W 061°51'0 0.0
2017-Nov-19 19:58N 17°07' W 061°51'0 0.0
2017-Nov-19 19:28N 17°07' W 061°51'0 0.0
2017-Nov-19 18:58N 17°07' W 061°51'0 0.0
2017-Nov-19 18:28N 17°07' W 061°51'0 0.0
2017-Nov-19 17:58N 17°07' W 061°51'0 0.0
2017-Nov-19 17:28N 17°07' W 061°51'0 0.0
2017-Nov-19 16:58N 17°07' W 061°51'0 0.0
2017-Nov-19 16:28N 17°07' W 061°51'0 0.0
2017-Nov-19 15:58N 17°07' W 061°51'0 0.0
2017-Nov-19 15:28N 17°07' W 061°51'0 0.0
2017-Nov-19 14:58N 17°07' W 061°51'0 0.0
2017-Nov-19 14:28N 17°07' W 061°51'0 0.0
2017-Nov-19 13:58N 17°07' W 061°51'0 0.0
2017-Nov-19 13:28N 17°07' W 061°51'0 0.0
2017-Nov-19 12:58N 17°07' W 061°51'0 0.0
2017-Nov-19 12:28N 17°07' W 061°51'0 0.0
2017-Nov-19 11:58N 17°07' W 061°51'4 8.5
2017-Nov-19 11:31N 17°07' W 061°55'1122.1
2017-Nov-19 11:00N 16°59' W 062°03'1121.7
2017-Nov-19 10:31N 16°52' W 062°11'4 7.2
2017-Nov-19 09:59N 16°48' W 062°12'0 0.3
2017-Nov-19 09:30N 16°48' W 062°13'0 0.0
2017-Nov-19 08:57N 16°48' W 062°13'0 0.0
2017-Nov-19 08:30N 16°48' W 062°13'0 0.0
2017-Nov-19 08:00N 16°48' W 062°13'0 0.0
2017-Nov-19 07:27N 16°48' W 062°13'0 0.0
2017-Nov-19 06:57N 16°48' W 062°13'0 0.0
2017-Nov-19 06:30N 16°48' W 062°13'0 0.0
2017-Nov-19 05:59N 16°48' W 062°13'0 0.0
2017-Nov-19 05:29N 16°48' W 062°13'0 0.0
2017-Nov-19 04:59N 16°48' W 062°13'0 0.0
2017-Nov-19 04:29N 16°48' W 062°13'0 0.0
2017-Nov-19 03:59N 16°48' W 062°13'0 0.0
2017-Nov-19 03:29N 16°48' W 062°13'0 0.0
2017-Nov-19 02:59N 16°48' W 062°13'0 0.0
2017-Nov-19 02:29N 16°48' W 062°13'0 0.0
2017-Nov-19 01:59N 16°48' W 062°13'0 0.0
2017-Nov-19 01:29N 16°48' W 062°13'0 0.0
2017-Nov-19 00:56N 16°48' W 062°13'0 0.9
2017-Nov-19 00:29N 16°49' W 062°13'1021.0
2017-Nov-18 23:59N 16°57' W 062°06'1021.3
2017-Nov-18 23:30N 17°04' W 061°58'814.8
2017-Nov-18 22:58N 17°07' W 061°51'0 0.0
2017-Nov-18 22:28N 17°07' W 061°51'0 0.0
2017-Nov-18 21:58N 17°07' W 061°51'0 0.0
2017-Nov-18 21:28N 17°07' W 061°51'0 0.0
2017-Nov-18 20:58N 17°07' W 061°51'0 0.0
2017-Nov-18 20:28N 17°07' W 061°51'0 0.0
2017-Nov-18 19:58N 17°07' W 061°51'0 0.0
2017-Nov-18 19:28N 17°07' W 061°51'0 0.0
2017-Nov-18 18:58N 17°07' W 061°51'0 0.0
2017-Nov-18 18:28N 17°07' W 061°51'0 0.0
2017-Nov-18 17:58N 17°07' W 061°51'0 0.0
2017-Nov-18 17:28N 17°07' W 061°51'0 0.0
2017-Nov-18 16:58N 17°07' W 061°51'0 0.0
2017-Nov-18 16:25N 17°07' W 061°51'0 0.0
2017-Nov-18 15:58N 17°07' W 061°51'0 0.0
2017-Nov-18 15:28N 17°07' W 061°51'0 0.0
2017-Nov-18 14:58N 17°07' W 061°51'0 0.0
2017-Nov-18 14:28N 17°07' W 061°51'0 0.0
2017-Nov-18 13:58N 17°07' W 061°51'0 0.0
2017-Nov-18 13:28N 17°07' W 061°51'0 0.0
2017-Nov-18 12:58N 17°07' W 061°51'0 0.0
2017-Nov-18 12:28N 17°07' W 061°51'1 1.3
2017-Nov-18 12:01N 17°07' W 061°51'917.7
2017-Nov-18 11:30N 17°03' W 061°59'1122.9
2017-Nov-18 11:00N 16°55' W 062°08'812.4
2017-Nov-18 10:22N 16°48' W 062°12'0 0.0
2017-Nov-18 09:55N 16°48' W 062°12'0 0.4
2017-Nov-18 09:20N 16°48' W 062°13'0 0.0
2017-Nov-18 08:56N 16°48' W 062°13'0 0.0
2017-Nov-18 08:29N 16°48' W 062°13'0 0.0
2017-Nov-18 07:46N 16°48' W 062°13'0 0.0
2017-Nov-18 07:28N 16°48' W 062°13'0 0.0
2017-Nov-18 06:58N 16°48' W 062°13'0 0.0
2017-Nov-18 06:22N 16°48' W 062°13'0 0.0
2017-Nov-18 05:58N 16°48' W 062°13'0 0.0
2017-Nov-18 05:25N 16°48' W 062°13'0 0.0
2017-Nov-18 04:55N 16°48' W 062°13'0 0.0
2017-Nov-18 04:28N 16°48' W 062°13'0 0.0
2017-Nov-18 03:58N 16°48' W 062°13'0 0.1
2017-Nov-18 00:32N 16°48' W 062°12'0 4.7
2017-Nov-18 00:30N 16°48' W 062°13'1020.0
2017-Nov-17 23:59N 16°56' W 062°06'1122.1
2017-Nov-17 23:30N 17°04' W 061°58'815.6
2017-Nov-17 23:00N 17°07' W 061°51'0 0.0
2017-Nov-17 22:30N 17°07' W 061°51'0 0.0
2017-Nov-17 22:00N 17°07' W 061°51'0 0.0
2017-Nov-17 21:30N 17°07' W 061°51'0 0.0
2017-Nov-17 21:00N 17°07' W 061°51'0 0.0
2017-Nov-17 20:30N 17°07' W 061°51'0 0.0
2017-Nov-17 20:00N 17°07' W 061°51'0 0.0
2017-Nov-17 19:30N 17°07' W 061°51'0 0.0
2017-Nov-17 19:00N 17°07' W 061°51'0 0.0
2017-Nov-17 18:27N 17°07' W 061°51'0 0.0
2017-Nov-17 18:00N 17°07' W 061°51'0 0.0
2017-Nov-17 17:30N 17°07' W 061°51'0 0.0
2017-Nov-17 17:00N 17°07' W 061°51'0 0.0
2017-Nov-17 16:30N 17°07' W 061°51'0 0.0
2017-Nov-17 16:00N 17°07' W 061°51'0 0.0
2017-Nov-17 15:30N 17°07' W 061°51'0 0.0
2017-Nov-17 15:00N 17°07' W 061°51'0 0.0
2017-Nov-17 14:30N 17°07' W 061°51'0 0.0
2017-Nov-17 14:00N 17°07' W 061°51'0 0.0
2017-Nov-17 13:30N 17°07' W 061°51'0 0.0
2017-Nov-17 13:00N 17°07' W 061°51'0 0.0
2017-Nov-17 12:30N 17°07' W 061°51'0 0.0
2017-Nov-17 12:00N 17°07' W 061°51'510.6
2017-Nov-17 11:30N 17°06' W 061°56'1122.0
2017-Nov-17 11:00N 16°58' W 062°04'1121.9
2017-Nov-17 10:30N 16°50' W 062°12'2 0.2
2017-Nov-17 01:02N 16°48' W 062°12'0 4.3
2017-Nov-17 01:00N 16°48' W 062°12'1119.6
2017-Nov-17 00:28N 16°56' W 062°05'1022.5
2017-Nov-17 00:00N 17°04' W 061°58'814.7
2017-Nov-16 23:29N 17°07' W 061°51'0 0.0
2017-Nov-16 22:59N 17°07' W 061°51'0 0.0
2017-Nov-16 22:29N 17°07' W 061°51'2 4.9
2017-Nov-16 22:00N 17°08' W 061°53'1223.4
2017-Nov-16 21:30N 17°00' W 062°02'1223.7
2017-Nov-16 21:00N 16°52' W 062°11'4 0.9
2017-Nov-16 16:48N 16°48' W 062°12'0 0.0
2017-Nov-16 14:40N 16°48' W 062°12'215.5
2017-Nov-16 14:30N 16°51' W 062°12'1121.6
2017-Nov-16 13:59N 16°58' W 062°04'1122.2
2017-Nov-16 13:30N 17°06' W 061°56'5 9.2
2017-Nov-16 12:58N 17°07' W 061°51'0 0.0
2017-Nov-16 12:28N 17°07' W 061°51'0 0.1
2017-Nov-16 11:59N 17°07' W 061°51'511.5
2017-Nov-16 11:30N 17°06' W 061°56'1223.5
2017-Nov-16 11:00N 16°58' W 062°05'1223.0
2017-Nov-16 10:30N 16°49' W 062°13'1 0.1
2017-Nov-15 20:51N 16°48' W 062°12'0 0.0
2017-Nov-15 01:03N 16°48' W 062°12'1 9.3
2017-Nov-15 00:59N 16°49' W 062°13'1121.3
2017-Nov-15 00:29N 16°57' W 062°06'1022.1
2017-Nov-15 00:01N 17°04' W 061°58'713.3
2017-Nov-14 23:28N 17°07' W 061°51'0 0.0
2017-Nov-14 22:58N 17°07' W 061°51'0 0.0
2017-Nov-14 22:28N 17°07' W 061°51'3 7.3
2017-Nov-14 22:00N 17°08' W 061°54'1123.0
2017-Nov-14 21:30N 16°59' W 062°03'1121.7
2017-Nov-14 21:00N 16°52' W 062°10'4 0.6
2017-Nov-14 14:33N 16°48' W 062°12'0 6.3
2017-Nov-14 14:30N 16°48' W 062°13'1121.5
2017-Nov-14 13:59N 16°57' W 062°05'1123.0
2017-Nov-14 13:30N 17°05' W 061°57'713.5
2017-Nov-14 13:00N 17°07' W 061°51'  

Dump ship's entire track history